Startpagina
METAR-TAF:

METAR-TAF

Vliegvelden :

London City Airport

Londen, Engeland

breedte: 51-30N, lengte: 000-03E, hoogte: 5 m

Actueel weer

Dit bericht is 34 minuten geleden gemaakt, om 15:20 UTC
Wind 19 kt uit het westen
Temperatuur 8°C
Vochtigheid 57%
Druk 1006 hPa
Zicht 10 km of meer

METAR: EGLC 261520Z AUTO 28019KT 9999 SCT042/// //////TCU 08/M00 Q1006

Tijdstip: 15:54 (15:54 UTC)

Verwachting

Dit bericht is 1 uur en het 51 minuten geleden gemaakt, om 14:03 UTC
Verwachting geldig van 26 om 15 UTC tot 26 om 22 UTC
Wind 12 kt uit het westen
Zicht 10 km of meer
Weinig wolken op 3000 ft
Tijdelijke
van 26 om 15 UTC tot 26 om 16 UTC
Wind 16 kt uit het westnoordwesten met uitschieters tot 28 kt
Zicht: 4000 m
Gebroken wolken op 1400 ft, Cumulonimbus.
regenbuien
Wijzigt naar
van 26 om 20 UTC tot 26 om 22 UTC
Wind 6 kt uit het zuidwesten

TAF: EGLC 261403Z 2615/2622 28012KT 9999 FEW030 TEMPO 2615/2616 29016G28KT 4000 SHRA BKN014CB BECMG 2620/2622 22006KT

Waarnemingen en weersverwachtingen van meer dan 4000 vliegvelden (METAR en TAF).

De beschikbare stations zijn de gele en rode punten op de kaart.

Ga met uw muis naar het station om de naam te zien.

Klik dan om waarnemingen en weersverwachtingen te zien.

kaart wijzigen: klik op de groene knoppen met een zwart kruis om in te zoomen, op de groene knop met een streepje om uit te zoomen of op de groene pijlen voor aangrenzende kaarten.


METAR-TAF: